sensor_id;sensor_type;location;lat;lon;timestamp;temperature;humidity
11704;DHT22;5908;51.354;7.458;2023-12-04T00:02:25;3.30;98.80
11704;DHT22;5908;51.354;7.458;2023-12-04T00:04:52;3.40;98.40
11704;DHT22;5908;51.354;7.458;2023-12-04T00:07:19;3.30;97.70
11704;DHT22;5908;51.354;7.458;2023-12-04T00:09:45;3.40;98.10
11704;DHT22;5908;51.354;7.458;2023-12-04T00:12:12;3.50;97.80
11704;DHT22;5908;51.354;7.458;2023-12-04T00:14:40;3.60;97.50
11704;DHT22;5908;51.354;7.458;2023-12-04T00:17:07;3.40;96.40
11704;DHT22;5908;51.354;7.458;2023-12-04T00:19:34;3.40;96.70
11704;DHT22;5908;51.354;7.458;2023-12-04T00:22:01;3.50;97.10
11704;DHT22;5908;51.354;7.458;2023-12-04T00:24:27;3.50;96.70
11704;DHT22;5908;51.354;7.458;2023-12-04T00:26:54;3.60;96.50
11704;DHT22;5908;51.354;7.458;2023-12-04T00:29:21;3.70;95.90
11704;DHT22;5908;51.354;7.458;2023-12-04T00:31:49;3.70;96.10
11704;DHT22;5908;51.354;7.458;2023-12-04T00:34:15;3.70;95.60
11704;DHT22;5908;51.354;7.458;2023-12-04T00:36:42;3.80;95.50
11704;DHT22;5908;51.354;7.458;2023-12-04T00:39:09;3.80;95.60
11704;DHT22;5908;51.354;7.458;2023-12-04T00:41:36;3.80;95.00
11704;DHT22;5908;51.354;7.458;2023-12-04T00:44:02;3.60;94.50
11704;DHT22;5908;51.354;7.458;2023-12-04T00:46:29;3.70;95.20
11704;DHT22;5908;51.354;7.458;2023-12-04T00:48:57;3.80;95.50
11704;DHT22;5908;51.354;7.458;2023-12-04T00:51:24;3.90;95.00
11704;DHT22;5908;51.354;7.458;2023-12-04T00:53:51;3.80;94.90
11704;DHT22;5908;51.354;7.458;2023-12-04T00:56:18;4.00;95.20
11704;DHT22;5908;51.354;7.458;2023-12-04T00:58:46;3.90;94.40
11704;DHT22;5908;51.354;7.458;2023-12-04T01:01:12;3.90;95.00
11704;DHT22;5908;51.354;7.458;2023-12-04T01:03:39;3.90;95.10
11704;DHT22;5908;51.354;7.458;2023-12-04T01:06:08;4.10;94.90
11704;DHT22;5908;51.354;7.458;2023-12-04T01:08:35;4.00;94.20
11704;DHT22;5908;51.354;7.458;2023-12-04T01:11:01;3.90;94.00
11704;DHT22;5908;51.354;7.458;2023-12-04T01:13:28;4.00;93.60
11704;DHT22;5908;51.354;7.458;2023-12-04T01:15:55;4.00;94.00
11704;DHT22;5908;51.354;7.458;2023-12-04T01:18:21;4.20;94.30
11704;DHT22;5908;51.354;7.458;2023-12-04T01:20:48;4.10;93.20
11704;DHT22;5908;51.354;7.458;2023-12-04T01:23:16;4.00;93.20
11704;DHT22;5908;51.354;7.458;2023-12-04T01:25:43;4.00;94.20
11704;DHT22;5908;51.354;7.458;2023-12-04T01:28:10;3.90;93.40
11704;DHT22;5908;51.354;7.458;2023-12-04T01:30:37;4.00;93.90
11704;DHT22;5908;51.354;7.458;2023-12-04T01:33:03;4.20;93.60
11704;DHT22;5908;51.354;7.458;2023-12-04T01:35:30;4.20;93.50
11704;DHT22;5908;51.354;7.458;2023-12-04T01:37:57;4.20;93.00
11704;DHT22;5908;51.354;7.458;2023-12-04T01:40:25;4.30;93.40
11704;DHT22;5908;51.354;7.458;2023-12-04T01:42:52;4.30;92.10
11704;DHT22;5908;51.354;7.458;2023-12-04T01:45:19;4.30;92.60
11704;DHT22;5908;51.354;7.458;2023-12-04T01:47:44;4.30;92.20
11704;DHT22;5908;51.354;7.458;2023-12-04T01:50:12;4.30;92.10
11704;DHT22;5908;51.354;7.458;2023-12-04T01:52:39;4.40;92.30
11704;DHT22;5908;51.354;7.458;2023-12-04T01:55:07;4.40;92.20
11704;DHT22;5908;51.354;7.458;2023-12-04T01:57:37;4.30;91.60
11704;DHT22;5908;51.354;7.458;2023-12-04T02:00:04;4.20;92.00
11704;DHT22;5908;51.354;7.458;2023-12-04T02:02:36;4.10;91.90
11704;DHT22;5908;51.354;7.458;2023-12-04T02:05:04;4.20;91.80
11704;DHT22;5908;51.354;7.458;2023-12-04T02:07:32;4.20;92.20
11704;DHT22;5908;51.354;7.458;2023-12-04T02:09:59;4.20;91.70
11704;DHT22;5908;51.354;7.458;2023-12-04T02:12:25;4.20;91.40
11704;DHT22;5908;51.354;7.458;2023-12-04T02:14:53;4.20;91.20
11704;DHT22;5908;51.354;7.458;2023-12-04T02:17:20;4.20;90.80
11704;DHT22;5908;51.354;7.458;2023-12-04T02:19:48;4.30;91.30
11704;DHT22;5908;51.354;7.458;2023-12-04T02:22:15;4.30;90.80
11704;DHT22;5908;51.354;7.458;2023-12-04T02:24:44;4.30;90.80
11704;DHT22;5908;51.354;7.458;2023-12-04T02:27:15;4.40;90.60
11704;DHT22;5908;51.354;7.458;2023-12-04T02:29:46;4.40;90.50
11704;DHT22;5908;51.354;7.458;2023-12-04T02:32:15;4.50;90.30
11704;DHT22;5908;51.354;7.458;2023-12-04T02:34:47;4.50;90.60
11704;DHT22;5908;51.354;7.458;2023-12-04T02:37:15;4.60;90.00
11704;DHT22;5908;51.354;7.458;2023-12-04T02:39:44;4.60;89.20
11704;DHT22;5908;51.354;7.458;2023-12-04T02:42:12;4.60;88.80
11704;DHT22;5908;51.354;7.458;2023-12-04T02:44:40;4.50;90.00
11704;DHT22;5908;51.354;7.458;2023-12-04T02:47:06;4.40;89.80
11704;DHT22;5908;51.354;7.458;2023-12-04T02:49:33;4.40;89.00
11704;DHT22;5908;51.354;7.458;2023-12-04T02:52:00;4.50;88.90
11704;DHT22;5908;51.354;7.458;2023-12-04T02:54:28;4.40;88.90
11704;DHT22;5908;51.354;7.458;2023-12-04T02:56:56;4.40;89.50
11704;DHT22;5908;51.354;7.458;2023-12-04T02:59:23;4.40;88.10
11704;DHT22;5908;51.354;7.458;2023-12-04T03:01:50;4.30;89.20
11704;DHT22;5908;51.354;7.458;2023-12-04T03:04:18;4.40;88.50
11704;DHT22;5908;51.354;7.458;2023-12-04T03:06:45;4.40;88.50
11704;DHT22;5908;51.354;7.458;2023-12-04T03:09:12;4.30;87.50
11704;DHT22;5908;51.354;7.458;2023-12-04T03:11:39;4.30;88.00
11704;DHT22;5908;51.354;7.458;2023-12-04T03:14:08;4.20;86.50
11704;DHT22;5908;51.354;7.458;2023-12-04T03:16:35;4.30;86.90
11704;DHT22;5908;51.354;7.458;2023-12-04T03:19:02;4.30;87.90
11704;DHT22;5908;51.354;7.458;2023-12-04T03:21:28;4.30;87.30
11704;DHT22;5908;51.354;7.458;2023-12-04T03:23:55;4.40;87.30
11704;DHT22;5908;51.354;7.458;2023-12-04T03:26:22;4.40;87.50
11704;DHT22;5908;51.354;7.458;2023-12-04T03:28:49;4.50;86.40
11704;DHT22;5908;51.354;7.458;2023-12-04T03:31:17;4.40;85.40
11704;DHT22;5908;51.354;7.458;2023-12-04T03:33:43;4.50;85.90
11704;DHT22;5908;51.354;7.458;2023-12-04T03:36:10;4.50;85.90
11704;DHT22;5908;51.354;7.458;2023-12-04T03:38:37;4.60;85.90
11704;DHT22;5908;51.354;7.458;2023-12-04T03:41:04;4.60;89.50
11704;DHT22;5908;51.354;7.458;2023-12-04T03:43:31;4.70;88.30
11704;DHT22;5908;51.354;7.458;2023-12-04T03:45:58;4.80;86.80
11704;DHT22;5908;51.354;7.458;2023-12-04T03:48:26;4.80;86.10
11704;DHT22;5908;51.354;7.458;2023-12-04T03:50:52;4.90;85.10
11704;DHT22;5908;51.354;7.458;2023-12-04T03:53:19;4.90;85.70
11704;DHT22;5908;51.354;7.458;2023-12-04T03:55:46;5.00;86.00
11704;DHT22;5908;51.354;7.458;2023-12-04T03:58:13;5.00;85.10
11704;DHT22;5908;51.354;7.458;2023-12-04T04:00:40;5.00;83.00
11704;DHT22;5908;51.354;7.458;2023-12-04T04:03:09;5.00;82.40
11704;DHT22;5908;51.354;7.458;2023-12-04T04:05:37;4.90;83.20
11704;DHT22;5908;51.354;7.458;2023-12-04T04:08:04;5.00;83.00
11704;DHT22;5908;51.354;7.458;2023-12-04T04:10:33;5.10;82.40
11704;DHT22;5908;51.354;7.458;2023-12-04T04:13:01;5.00;82.10
11704;DHT22;5908;51.354;7.458;2023-12-04T04:15:28;4.80;82.10
11704;DHT22;5908;51.354;7.458;2023-12-04T04:17:55;4.90;83.70
11704;DHT22;5908;51.354;7.458;2023-12-04T04:20:22;5.00;83.00
11704;DHT22;5908;51.354;7.458;2023-12-04T04:22:50;5.00;83.00
11704;DHT22;5908;51.354;7.458;2023-12-04T04:25:19;5.20;82.80
11704;DHT22;5908;51.354;7.458;2023-12-04T04:27:47;5.10;81.90
11704;DHT22;5908;51.354;7.458;2023-12-04T04:30:14;5.10;81.00
11704;DHT22;5908;51.354;7.458;2023-12-04T04:32:41;5.10;80.00
11704;DHT22;5908;51.354;7.458;2023-12-04T04:35:08;5.20;80.20
11704;DHT22;5908;51.354;7.458;2023-12-04T04:37:35;4.60;78.40
11704;DHT22;5908;51.354;7.458;2023-12-04T04:40:05;4.50;80.60
11704;DHT22;5908;51.354;7.458;2023-12-04T04:42:32;4.70;80.90
11704;DHT22;5908;51.354;7.458;2023-12-04T04:44:59;4.90;80.10
11704;DHT22;5908;51.354;7.458;2023-12-04T04:47:26;4.90;78.90
11704;DHT22;5908;51.354;7.458;2023-12-04T04:49:53;5.10;79.20
11704;DHT22;5908;51.354;7.458;2023-12-04T04:52:22;4.90;77.40
11704;DHT22;5908;51.354;7.458;2023-12-04T04:54:49;4.70;78.20
11704;DHT22;5908;51.354;7.458;2023-12-04T04:57:17;4.60;78.70
11704;DHT22;5908;51.354;7.458;2023-12-04T04:59:44;4.70;78.80
11704;DHT22;5908;51.354;7.458;2023-12-04T05:02:11;4.70;78.50
11704;DHT22;5908;51.354;7.458;2023-12-04T05:04:38;4.60;78.70
11704;DHT22;5908;51.354;7.458;2023-12-04T05:07:05;4.60;79.30
11704;DHT22;5908;51.354;7.458;2023-12-04T05:09:32;4.80;79.30
11704;DHT22;5908;51.354;7.458;2023-12-04T05:11:58;4.70;78.60
11704;DHT22;5908;51.354;7.458;2023-12-04T05:14:26;4.70;79.60
11704;DHT22;5908;51.354;7.458;2023-12-04T05:16:53;4.80;80.20
11704;DHT22;5908;51.354;7.458;2023-12-04T05:19:20;5.00;80.00
11704;DHT22;5908;51.354;7.458;2023-12-04T05:21:47;5.00;79.80
11704;DHT22;5908;51.354;7.458;2023-12-04T05:24:13;5.10;79.50
11704;DHT22;5908;51.354;7.458;2023-12-04T05:26:40;4.90;79.10
11704;DHT22;5908;51.354;7.458;2023-12-04T05:29:07;4.90;80.20
11704;DHT22;5908;51.354;7.458;2023-12-04T05:31:35;5.00;79.60
11704;DHT22;5908;51.354;7.458;2023-12-04T05:34:02;5.00;80.10
11704;DHT22;5908;51.354;7.458;2023-12-04T05:36:29;5.10;79.80
11704;DHT22;5908;51.354;7.458;2023-12-04T05:38:56;5.20;80.00
11704;DHT22;5908;51.354;7.458;2023-12-04T05:41:22;5.00;79.90
11704;DHT22;5908;51.354;7.458;2023-12-04T05:43:49;5.00;78.70
11704;DHT22;5908;51.354;7.458;2023-12-04T05:46:16;5.00;79.30
11704;DHT22;5908;51.354;7.458;2023-12-04T05:48:44;4.90;79.20
11704;DHT22;5908;51.354;7.458;2023-12-04T05:51:11;5.10;79.40
11704;DHT22;5908;51.354;7.458;2023-12-04T05:53:37;5.00;78.90
11704;DHT22;5908;51.354;7.458;2023-12-04T05:56:05;4.70;78.90
11704;DHT22;5908;51.354;7.458;2023-12-04T05:58:34;4.80;79.20
11704;DHT22;5908;51.354;7.458;2023-12-04T06:01:01;4.80;78.50
11704;DHT22;5908;51.354;7.458;2023-12-04T06:03:28;4.80;78.10
11704;DHT22;5908;51.354;7.458;2023-12-04T06:05:56;4.70;78.10
11704;DHT22;5908;51.354;7.458;2023-12-04T06:08:22;4.60;78.50
11704;DHT22;5908;51.354;7.458;2023-12-04T06:10:49;4.70;78.60
11704;DHT22;5908;51.354;7.458;2023-12-04T06:13:16;4.70;78.70
11704;DHT22;5908;51.354;7.458;2023-12-04T06:15:43;4.70;79.00
11704;DHT22;5908;51.354;7.458;2023-12-04T06:18:10;4.70;79.00
11704;DHT22;5908;51.354;7.458;2023-12-04T06:20:37;4.80;78.40
11704;DHT22;5908;51.354;7.458;2023-12-04T06:23:05;4.80;78.00
11704;DHT22;5908;51.354;7.458;2023-12-04T06:25:33;4.80;78.70
11704;DHT22;5908;51.354;7.458;2023-12-04T06:28:00;4.70;78.40
11704;DHT22;5908;51.354;7.458;2023-12-04T06:30:27;4.80;78.50
11704;DHT22;5908;51.354;7.458;2023-12-04T06:32:54;4.80;78.60
11704;DHT22;5908;51.354;7.458;2023-12-04T06:35:22;4.80;78.10
11704;DHT22;5908;51.354;7.458;2023-12-04T06:37:49;4.90;78.60
11704;DHT22;5908;51.354;7.458;2023-12-04T06:40:22;4.80;79.50
11704;DHT22;5908;51.354;7.458;2023-12-04T06:42:49;4.80;80.00
11704;DHT22;5908;51.354;7.458;2023-12-04T06:45:17;4.80;79.90
11704;DHT22;5908;51.354;7.458;2023-12-04T06:47:46;4.90;79.20
11704;DHT22;5908;51.354;7.458;2023-12-04T06:50:16;4.90;79.00
11704;DHT22;5908;51.354;7.458;2023-12-04T06:52:43;4.80;78.90
11704;DHT22;5908;51.354;7.458;2023-12-04T06:55:11;4.70;79.20
11704;DHT22;5908;51.354;7.458;2023-12-04T06:57:39;4.80;79.50
11704;DHT22;5908;51.354;7.458;2023-12-04T07:00:07;4.90;79.60
11704;DHT22;5908;51.354;7.458;2023-12-04T07:02:37;4.90;79.00
11704;DHT22;5908;51.354;7.458;2023-12-04T07:05:05;5.00;78.90
11704;DHT22;5908;51.354;7.458;2023-12-04T07:07:32;4.80;78.10
11704;DHT22;5908;51.354;7.458;2023-12-04T07:09:59;4.70;78.10
11704;DHT22;5908;51.354;7.458;2023-12-04T07:12:26;4.50;78.70
11704;DHT22;5908;51.354;7.458;2023-12-04T07:14:54;4.30;79.60
11704;DHT22;5908;51.354;7.458;2023-12-04T07:17:20;4.50;80.00
11704;DHT22;5908;51.354;7.458;2023-12-04T07:19:47;4.50;79.50
11704;DHT22;5908;51.354;7.458;2023-12-04T07:22:14;4.60;79.70
11704;DHT22;5908;51.354;7.458;2023-12-04T07:24:41;4.60;79.60
11704;DHT22;5908;51.354;7.458;2023-12-04T07:27:07;4.60;78.00
11704;DHT22;5908;51.354;7.458;2023-12-04T07:29:37;4.50;78.40
11704;DHT22;5908;51.354;7.458;2023-12-04T07:32:07;4.40;79.00
11704;DHT22;5908;51.354;7.458;2023-12-04T07:34:33;4.30;79.30
11704;DHT22;5908;51.354;7.458;2023-12-04T07:37:00;4.10;79.40
11704;DHT22;5908;51.354;7.458;2023-12-04T07:39:28;4.20;80.10
11704;DHT22;5908;51.354;7.458;2023-12-04T07:41:54;4.30;79.70
11704;DHT22;5908;51.354;7.458;2023-12-04T07:44:21;4.30;80.70
11704;DHT22;5908;51.354;7.458;2023-12-04T07:46:48;4.10;79.40
11704;DHT22;5908;51.354;7.458;2023-12-04T07:49:16;4.00;80.90
11704;DHT22;5908;51.354;7.458;2023-12-04T07:51:42;4.10;80.40
11704;DHT22;5908;51.354;7.458;2023-12-04T07:54:12;4.40;79.30
11704;DHT22;5908;51.354;7.458;2023-12-04T07:56:38;4.60;79.30
11704;DHT22;5908;51.354;7.458;2023-12-04T07:59:05;4.60;78.50
11704;DHT22;5908;51.354;7.458;2023-12-04T08:01:32;4.60;78.00
11704;DHT22;5908;51.354;7.458;2023-12-04T08:03:59;4.60;77.80
11704;DHT22;5908;51.354;7.458;2023-12-04T08:06:27;4.70;78.40
11704;DHT22;5908;51.354;7.458;2023-12-04T08:08:55;4.90;78.40
11704;DHT22;5908;51.354;7.458;2023-12-04T08:11:22;5.00;77.70
11704;DHT22;5908;51.354;7.458;2023-12-04T08:13:49;5.10;77.50
11704;DHT22;5908;51.354;7.458;2023-12-04T08:16:16;5.20;76.60
11704;DHT22;5908;51.354;7.458;2023-12-04T08:18:43;5.40;76.60
11704;DHT22;5908;51.354;7.458;2023-12-04T08:21:10;5.30;75.90
11704;DHT22;5908;51.354;7.458;2023-12-04T08:23:38;5.10;75.30
11704;DHT22;5908;51.354;7.458;2023-12-04T08:26:05;5.30;76.40
11704;DHT22;5908;51.354;7.458;2023-12-04T08:28:33;5.50;75.40
11704;DHT22;5908;51.354;7.458;2023-12-04T08:31:00;5.50;74.30
11704;DHT22;5908;51.354;7.458;2023-12-04T08:33:27;5.50;75.30
11704;DHT22;5908;51.354;7.458;2023-12-04T08:35:54;5.40;74.90
11704;DHT22;5908;51.354;7.458;2023-12-04T08:38:20;5.40;75.00
11704;DHT22;5908;51.354;7.458;2023-12-04T08:40:48;5.60;74.10
11704;DHT22;5908;51.354;7.458;2023-12-04T08:43:15;5.50;73.90
11704;DHT22;5908;51.354;7.458;2023-12-04T08:45:42;5.40;74.30
11704;DHT22;5908;51.354;7.458;2023-12-04T08:48:09;5.40;74.80
11704;DHT22;5908;51.354;7.458;2023-12-04T08:50:36;5.60;75.50
11704;DHT22;5908;51.354;7.458;2023-12-04T08:53:03;5.60;74.30
11704;DHT22;5908;51.354;7.458;2023-12-04T08:55:30;5.50;74.90
11704;DHT22;5908;51.354;7.458;2023-12-04T08:57:58;5.60;74.60
11704;DHT22;5908;51.354;7.458;2023-12-04T09:00:25;5.50;75.00
11704;DHT22;5908;51.354;7.458;2023-12-04T09:02:52;5.40;75.30
11704;DHT22;5908;51.354;7.458;2023-12-04T09:05:19;5.40;74.70
11704;DHT22;5908;51.354;7.458;2023-12-04T09:07:45;5.50;74.00
11704;DHT22;5908;51.354;7.458;2023-12-04T09:10:12;5.60;74.50
11704;DHT22;5908;51.354;7.458;2023-12-04T09:12:39;5.70;74.60
11704;DHT22;5908;51.354;7.458;2023-12-04T09:15:07;5.70;74.30
11704;DHT22;5908;51.354;7.458;2023-12-04T09:17:34;5.90;74.10
11704;DHT22;5908;51.354;7.458;2023-12-04T09:20:01;5.80;74.20
11704;DHT22;5908;51.354;7.458;2023-12-04T09:22:28;5.90;74.20
11704;DHT22;5908;51.354;7.458;2023-12-04T09:24:55;5.90;73.60
11704;DHT22;5908;51.354;7.458;2023-12-04T09:27:22;5.70;73.60
11704;DHT22;5908;51.354;7.458;2023-12-04T09:29:49;5.80;73.30
11704;DHT22;5908;51.354;7.458;2023-12-04T09:32:17;5.70;74.60
11704;DHT22;5908;51.354;7.458;2023-12-04T09:34:44;5.70;74.60
11704;DHT22;5908;51.354;7.458;2023-12-04T09:37:11;5.70;74.60
11704;DHT22;5908;51.354;7.458;2023-12-04T09:39:37;5.80;74.90
11704;DHT22;5908;51.354;7.458;2023-12-04T09:42:05;5.90;74.90
11704;DHT22;5908;51.354;7.458;2023-12-04T09:44:33;5.90;76.50
11704;DHT22;5908;51.354;7.458;2023-12-04T09:47:02;6.00;75.90
11704;DHT22;5908;51.354;7.458;2023-12-04T09:49:31;6.00;76.40
11704;DHT22;5908;51.354;7.458;2023-12-04T09:51:58;6.10;76.20
11704;DHT22;5908;51.354;7.458;2023-12-04T09:54:26;6.30;76.40
11704;DHT22;5908;51.354;7.458;2023-12-04T09:56:55;6.60;76.10
11704;DHT22;5908;51.354;7.458;2023-12-04T09:59:23;6.80;75.00
11704;DHT22;5908;51.354;7.458;2023-12-04T10:01:51;6.90;73.50
11704;DHT22;5908;51.354;7.458;2023-12-04T10:04:18;7.00;71.50
11704;DHT22;5908;51.354;7.458;2023-12-04T10:06:50;6.80;71.80
11704;DHT22;5908;51.354;7.458;2023-12-04T10:09:17;6.60;73.10
11704;DHT22;5908;51.354;7.458;2023-12-04T10:11:45;6.50;73.10
11704;DHT22;5908;51.354;7.458;2023-12-04T10:14:16;6.50;73.50
11704;DHT22;5908;51.354;7.458;2023-12-04T10:16:43;6.60;73.40
11704;DHT22;5908;51.354;7.458;2023-12-04T10:19:15;6.70;73.50
11704;DHT22;5908;51.354;7.458;2023-12-04T10:21:43;6.70;73.40
11704;DHT22;5908;51.354;7.458;2023-12-04T10:24:11;6.70;72.50
11704;DHT22;5908;51.354;7.458;2023-12-04T10:26:39;6.60;72.50
11704;DHT22;5908;51.354;7.458;2023-12-04T10:29:15;6.60;72.20
11704;DHT22;5908;51.354;7.458;2023-12-04T10:31:42;6.00;73.50
11704;DHT22;5908;51.354;7.458;2023-12-04T10:34:09;6.30;74.10
11704;DHT22;5908;51.354;7.458;2023-12-04T10:36:36;6.60;74.30
11704;DHT22;5908;51.354;7.458;2023-12-04T10:39:03;6.30;74.20
11704;DHT22;5908;51.354;7.458;2023-12-04T10:41:32;5.70;75.30
11704;DHT22;5908;51.354;7.458;2023-12-04T10:43:59;5.50;76.40
11704;DHT22;5908;51.354;7.458;2023-12-04T10:46:27;5.40;78.00
11704;DHT22;5908;51.354;7.458;2023-12-04T10:48:56;5.80;77.10
11704;DHT22;5908;51.354;7.458;2023-12-04T10:51:23;6.30;76.60
11704;DHT22;5908;51.354;7.458;2023-12-04T10:53:52;6.50;76.50
11704;DHT22;5908;51.354;7.458;2023-12-04T10:56:22;6.60;75.70
11704;DHT22;5908;51.354;7.458;2023-12-04T10:58:51;6.00;75.90
11704;DHT22;5908;51.354;7.458;2023-12-04T11:01:19;5.70;77.80
11704;DHT22;5908;51.354;7.458;2023-12-04T11:03:52;5.40;79.30
11704;DHT22;5908;51.354;7.458;2023-12-04T11:06:20;5.80;79.60
11704;DHT22;5908;51.354;7.458;2023-12-04T11:08:49;6.30;78.70
11704;DHT22;5908;51.354;7.458;2023-12-04T11:11:25;6.40;77.90
11704;DHT22;5908;51.354;7.458;2023-12-04T11:13:56;6.30;78.00
11704;DHT22;5908;51.354;7.458;2023-12-04T11:16:28;6.60;78.40
11704;DHT22;5908;51.354;7.458;2023-12-04T11:19:00;6.70;77.90
11704;DHT22;5908;51.354;7.458;2023-12-04T11:21:28;6.70;78.20
11704;DHT22;5908;51.354;7.458;2023-12-04T11:23:56;6.90;78.10
11704;DHT22;5908;51.354;7.458;2023-12-04T11:26:24;6.90;78.20
11704;DHT22;5908;51.354;7.458;2023-12-04T11:28:53;6.90;78.30
11704;DHT22;5908;51.354;7.458;2023-12-04T11:31:20;7.10;78.70
11704;DHT22;5908;51.354;7.458;2023-12-04T11:33:47;7.20;78.60
11704;DHT22;5908;51.354;7.458;2023-12-04T11:36:15;7.10;78.50
11704;DHT22;5908;51.354;7.458;2023-12-04T11:38:46;6.90;80.00
11704;DHT22;5908;51.354;7.458;2023-12-04T11:41:15;6.70;80.40
11704;DHT22;5908;51.354;7.458;2023-12-04T11:43:44;6.70;80.90
11704;DHT22;5908;51.354;7.458;2023-12-04T11:46:13;6.80;80.90
11704;DHT22;5908;51.354;7.458;2023-12-04T11:48:45;7.00;81.10
11704;DHT22;5908;51.354;7.458;2023-12-04T11:51:15;7.10;81.20
11704;DHT22;5908;51.354;7.458;2023-12-04T11:54:02;7.30;81.00
11704;DHT22;5908;51.354;7.458;2023-12-04T11:56:30;7.40;81.00
11704;DHT22;5908;51.354;7.458;2023-12-04T11:59:02;7.60;80.30
11704;DHT22;5908;51.354;7.458;2023-12-04T12:01:36;7.60;80.40
11704;DHT22;5908;51.354;7.458;2023-12-04T12:04:04;7.80;80.30
11704;DHT22;5908;51.354;7.458;2023-12-04T12:06:31;7.70;80.40
11704;DHT22;5908;51.354;7.458;2023-12-04T12:08:58;7.50;81.00
11704;DHT22;5908;51.354;7.458;2023-12-04T12:11:26;7.60;81.20
11704;DHT22;5908;51.354;7.458;2023-12-04T12:13:53;7.50;81.50
11704;DHT22;5908;51.354;7.458;2023-12-04T12:16:20;7.30;82.10
11704;DHT22;5908;51.354;7.458;2023-12-04T12:18:48;7.40;82.10
11704;DHT22;5908;51.354;7.458;2023-12-04T12:21:15;7.50;82.50
11704;DHT22;5908;51.354;7.458;2023-12-04T12:23:42;7.20;83.40
11704;DHT22;5908;51.354;7.458;2023-12-04T12:26:08;7.30;84.00
11704;DHT22;5908;51.354;7.458;2023-12-04T12:28:36;7.50;83.80
11704;DHT22;5908;51.354;7.458;2023-12-04T12:31:03;7.30;84.00
11704;DHT22;5908;51.354;7.458;2023-12-04T12:33:31;7.00;85.10
11704;DHT22;5908;51.354;7.458;2023-12-04T12:35:59;7.20;85.30
11704;DHT22;5908;51.354;7.458;2023-12-04T12:38:29;6.70;86.70
11704;DHT22;5908;51.354;7.458;2023-12-04T12:41:00;6.80;87.30
11704;DHT22;5908;51.354;7.458;2023-12-04T12:43:27;7.00;87.10
11704;DHT22;5908;51.354;7.458;2023-12-04T12:45:54;6.90;87.60
11704;DHT22;5908;51.354;7.458;2023-12-04T12:48:21;6.40;88.60
11704;DHT22;5908;51.354;7.458;2023-12-04T12:50:48;6.20;90.00
11704;DHT22;5908;51.354;7.458;2023-12-04T12:53:17;6.30;90.00
11704;DHT22;5908;51.354;7.458;2023-12-04T12:55:44;6.20;90.10
11704;DHT22;5908;51.354;7.458;2023-12-04T12:58:11;5.90;90.50
11704;DHT22;5908;51.354;7.458;2023-12-04T13:00:39;5.90;91.00
11704;DHT22;5908;51.354;7.458;2023-12-04T13:03:14;5.90;90.80
11704;DHT22;5908;51.354;7.458;2023-12-04T13:05:41;5.70;91.60
11704;DHT22;5908;51.354;7.458;2023-12-04T13:08:07;5.80;91.40
11704;DHT22;5908;51.354;7.458;2023-12-04T13:10:35;6.20;91.10
11704;DHT22;5908;51.354;7.458;2023-12-04T13:13:02;6.00;91.10
11704;DHT22;5908;51.354;7.458;2023-12-04T13:15:29;6.20;91.30
11704;DHT22;5908;51.354;7.458;2023-12-04T13:17:56;6.10;91.60
11704;DHT22;5908;51.354;7.458;2023-12-04T13:20:23;5.80;92.00
11704;DHT22;5908;51.354;7.458;2023-12-04T13:22:50;6.10;92.20
11704;DHT22;5908;51.354;7.458;2023-12-04T13:25:17;6.20;91.70
11704;DHT22;5908;51.354;7.458;2023-12-04T13:27:45;6.10;91.80
11704;DHT22;5908;51.354;7.458;2023-12-04T13:30:12;5.80;92.00
11704;DHT22;5908;51.354;7.458;2023-12-04T13:32:39;5.60;92.40
11704;DHT22;5908;51.354;7.458;2023-12-04T13:35:07;5.30;92.80
11704;DHT22;5908;51.354;7.458;2023-12-04T13:37:34;5.10;93.50
11704;DHT22;5908;51.354;7.458;2023-12-04T13:40:02;5.40;93.20
11704;DHT22;5908;51.354;7.458;2023-12-04T13:42:32;5.40;93.50
11704;DHT22;5908;51.354;7.458;2023-12-04T13:45:28;5.80;93.20
11704;DHT22;5908;51.354;7.458;2023-12-04T13:47:57;5.50;93.60
11704;DHT22;5908;51.354;7.458;2023-12-04T13:50:23;5.30;94.10
11704;DHT22;5908;51.354;7.458;2023-12-04T13:52:50;5.00;94.50
11704;DHT22;5908;51.354;7.458;2023-12-04T13:55:21;5.00;94.80
11704;DHT22;5908;51.354;7.458;2023-12-04T13:58:02;4.90;94.90
11704;DHT22;5908;51.354;7.458;2023-12-04T14:00:37;4.90;95.60
11704;DHT22;5908;51.354;7.458;2023-12-04T14:03:04;5.00;95.30
11704;DHT22;5908;51.354;7.458;2023-12-04T14:05:32;5.20;95.80
11704;DHT22;5908;51.354;7.458;2023-12-04T14:07:59;5.70;95.10
11704;DHT22;5908;51.354;7.458;2023-12-04T14:10:26;6.30;94.50
11704;DHT22;5908;51.354;7.458;2023-12-04T14:12:54;6.60;93.80
11704;DHT22;5908;51.354;7.458;2023-12-04T14:15:21;6.30;93.50
11704;DHT22;5908;51.354;7.458;2023-12-04T14:17:49;6.40;93.80
11704;DHT22;5908;51.354;7.458;2023-12-04T14:20:16;6.20;93.60
11704;DHT22;5908;51.354;7.458;2023-12-04T14:22:45;5.90;94.00
11704;DHT22;5908;51.354;7.458;2023-12-04T14:25:12;5.10;95.30
11704;DHT22;5908;51.354;7.458;2023-12-04T14:27:39;4.80;96.20
11704;DHT22;5908;51.354;7.458;2023-12-04T14:30:09;4.90;96.90
11704;DHT22;5908;51.354;7.458;2023-12-04T14:32:36;5.00;96.20
11704;DHT22;5908;51.354;7.458;2023-12-04T14:35:05;4.80;96.60
11704;DHT22;5908;51.354;7.458;2023-12-04T14:37:32;5.10;96.60
11704;DHT22;5908;51.354;7.458;2023-12-04T14:40:00;4.90;96.80
11704;DHT22;5908;51.354;7.458;2023-12-04T14:42:27;4.90;96.90
11704;DHT22;5908;51.354;7.458;2023-12-04T14:44:54;5.00;96.70
11704;DHT22;5908;51.354;7.458;2023-12-04T14:47:20;5.00;96.90
11704;DHT22;5908;51.354;7.458;2023-12-04T14:49:47;5.00;96.30
11704;DHT22;5908;51.354;7.458;2023-12-04T14:52:20;4.90;96.60
11704;DHT22;5908;51.354;7.458;2023-12-04T14:54:48;5.10;96.40
11704;DHT22;5908;51.354;7.458;2023-12-04T14:57:38;5.20;96.20
11704;DHT22;5908;51.354;7.458;2023-12-04T15:00:38;5.50;95.40
11704;DHT22;5908;51.354;7.458;2023-12-04T15:03:30;5.30;95.40
11704;DHT22;5908;51.354;7.458;2023-12-04T15:06:16;5.40;95.50
11704;DHT22;5908;51.354;7.458;2023-12-04T15:09:05;5.10;95.70
11704;DHT22;5908;51.354;7.458;2023-12-04T15:12:04;5.10;95.90
11704;DHT22;5908;51.354;7.458;2023-12-04T15:14:48;5.30;96.10
11704;DHT22;5908;51.354;7.458;2023-12-04T15:17:19;5.20;96.20
11704;DHT22;5908;51.354;7.458;2023-12-04T15:19:57;5.20;96.20
11704;DHT22;5908;51.354;7.458;2023-12-04T15:22:45;5.10;96.90
11704;DHT22;5908;51.354;7.458;2023-12-04T15:25:13;5.10;97.70
11704;DHT22;5908;51.354;7.458;2023-12-04T15:27:40;5.20;97.40
11704;DHT22;5908;51.354;7.458;2023-12-04T15:30:08;4.80;98.00
11704;DHT22;5908;51.354;7.458;2023-12-04T15:32:36;4.70;98.80
11704;DHT22;5908;51.354;7.458;2023-12-04T15:35:02;4.60;98.20
11704;DHT22;5908;51.354;7.458;2023-12-04T15:37:29;4.50;98.40
11704;DHT22;5908;51.354;7.458;2023-12-04T15:39:54;4.40;98.50
11704;DHT22;5908;51.354;7.458;2023-12-04T15:42:22;4.60;97.90
11704;DHT22;5908;51.354;7.458;2023-12-04T15:44:48;4.80;97.70
11704;DHT22;5908;51.354;7.458;2023-12-04T15:47:15;5.10;97.20
11704;DHT22;5908;51.354;7.458;2023-12-04T15:49:41;5.20;96.50
11704;DHT22;5908;51.354;7.458;2023-12-04T15:52:08;5.30;96.50
11704;DHT22;5908;51.354;7.458;2023-12-04T15:54:33;5.50;96.10
11704;DHT22;5908;51.354;7.458;2023-12-04T15:57:00;5.40;95.80
11704;DHT22;5908;51.354;7.458;2023-12-04T15:59:27;5.30;95.90
11704;DHT22;5908;51.354;7.458;2023-12-04T16:01:54;5.60;95.80
11704;DHT22;5908;51.354;7.458;2023-12-04T16:04:25;5.70;96.00
11704;DHT22;5908;51.354;7.458;2023-12-04T16:06:55;5.70;95.70
11704;DHT22;5908;51.354;7.458;2023-12-04T16:09:22;5.70;95.70